createdAt,value
2023-02-05T00:01:14.368Z,9.80
2023-02-05T00:03:43.673Z,8.30
2023-02-05T00:06:12.557Z,9.40
2023-02-05T00:08:42.044Z,10.00
2023-02-05T00:11:10.934Z,9.20
2023-02-05T00:13:41.478Z,9.90
2023-02-05T00:16:18.099Z,10.20
2023-02-05T00:18:46.724Z,12.10
2023-02-05T00:21:15.426Z,8.60
2023-02-05T00:23:43.925Z,13.70
2023-02-05T00:26:14.517Z,12.20
2023-02-05T00:28:43.407Z,11.40
2023-02-05T00:31:14.010Z,12.90
2023-02-05T00:33:42.625Z,15.70
2023-02-05T00:36:12.973Z,29.10
2023-02-05T00:38:42.661Z,17.20
2023-02-05T00:41:11.835Z,20.70
2023-02-05T00:43:40.757Z,21.10
2023-02-05T00:46:10.642Z,16.20
2023-02-05T00:48:40.271Z,19.00
2023-02-05T00:51:10.617Z,17.80
2023-02-05T00:53:38.939Z,15.10
2023-02-05T00:56:07.786Z,15.30
2023-02-05T00:58:36.979Z,15.80
2023-02-05T01:01:05.749Z,17.10
2023-02-05T01:03:34.754Z,15.80
2023-02-05T01:06:03.592Z,14.30
2023-02-05T01:08:32.834Z,15.10
2023-02-05T01:11:01.566Z,15.80
2023-02-05T01:13:30.617Z,16.80
2023-02-05T01:15:59.254Z,14.60
2023-02-05T01:18:27.902Z,17.20
2023-02-05T01:20:56.491Z,13.50
2023-02-05T01:23:25.265Z,15.80
2023-02-05T01:25:53.875Z,15.90
2023-02-05T01:28:23.256Z,17.20
2023-02-05T01:30:51.821Z,18.20
2023-02-05T01:33:21.767Z,20.60
2023-02-05T01:35:50.404Z,19.40
2023-02-05T01:38:18.918Z,22.40
2023-02-05T01:40:47.507Z,16.90
2023-02-05T01:43:16.782Z,18.60
2023-02-05T01:45:50.934Z,18.40
2023-02-05T01:48:22.953Z,19.70
2023-02-05T01:50:54.084Z,20.40
2023-02-05T01:53:25.262Z,19.80
2023-02-05T01:56:02.543Z,23.10
2023-02-05T01:58:33.688Z,20.60
2023-02-05T02:01:02.065Z,19.70
2023-02-05T02:03:31.169Z,23.80
2023-02-05T02:06:00.610Z,22.30
2023-02-05T02:08:29.865Z,21.90
2023-02-05T02:10:59.274Z,24.30
2023-02-05T02:13:27.760Z,21.50
2023-02-05T02:15:56.476Z,19.10
2023-02-05T02:18:27.014Z,19.40
2023-02-05T02:21:02.321Z,17.40
2023-02-05T02:23:55.673Z,19.80
2023-02-05T02:26:33.702Z,19.30
2023-02-05T02:29:04.498Z,18.40
2023-02-05T02:31:39.932Z,21.70
2023-02-05T02:34:15.403Z,20.40
2023-02-05T02:36:58.656Z,21.40
2023-02-05T02:39:33.174Z,20.70
2023-02-05T02:42:34.918Z,18.80
2023-02-05T02:45:07.553Z,20.20
2023-02-05T02:47:43.600Z,21.80
2023-02-05T02:50:37.143Z,22.60
2023-02-05T02:53:18.181Z,22.10
2023-02-05T02:55:46.816Z,22.60
2023-02-05T02:58:33.365Z,19.90
2023-02-05T03:01:02.141Z,22.00
2023-02-05T03:03:30.713Z,21.20
2023-02-05T03:05:59.474Z,22.90
2023-02-05T03:08:41.570Z,20.20
2023-02-05T03:11:14.130Z,25.60
2023-02-05T03:13:46.400Z,25.20
2023-02-05T03:16:15.533Z,25.00
2023-02-05T03:18:44.089Z,20.30
2023-02-05T03:21:19.047Z,23.10
2023-02-05T03:23:48.974Z,20.80
2023-02-05T03:26:28.915Z,22.90
2023-02-05T03:29:08.554Z,26.10
2023-02-05T03:31:44.165Z,24.70
2023-02-05T03:34:23.610Z,22.90
2023-02-05T03:37:00.428Z,22.60
2023-02-05T03:39:45.955Z,25.60
2023-02-05T03:42:45.598Z,26.70
2023-02-05T03:45:34.408Z,25.90
2023-02-05T03:48:26.570Z,25.30
2023-02-05T03:51:13.591Z,22.50
2023-02-05T03:54:16.769Z,22.20
2023-02-05T03:57:16.289Z,24.30
2023-02-05T03:59:45.696Z,24.40
2023-02-05T04:02:14.835Z,21.10
2023-02-05T04:04:44.098Z,20.90
2023-02-05T04:07:12.576Z,22.00
2023-02-05T04:09:41.367Z,23.50
2023-02-05T04:12:10.852Z,23.20
2023-02-05T04:14:40.022Z,24.20
2023-02-05T04:17:11.605Z,21.40
2023-02-05T04:19:41.808Z,23.80
2023-02-05T04:22:10.522Z,24.80
2023-02-05T04:24:45.250Z,24.90
2023-02-05T04:27:14.444Z,27.60
2023-02-05T04:29:43.132Z,24.90
2023-02-05T04:32:11.981Z,21.80
2023-02-05T04:34:40.478Z,22.70
2023-02-05T04:37:09.599Z,28.50
2023-02-05T04:39:38.221Z,22.10
2023-02-05T04:42:06.772Z,22.00
2023-02-05T04:44:35.348Z,20.70
2023-02-05T04:47:04.250Z,20.80
2023-02-05T04:49:33.850Z,22.10
2023-02-05T04:52:02.642Z,22.80
2023-02-05T04:54:32.041Z,26.10
2023-02-05T04:57:00.522Z,23.50
2023-02-05T04:59:30.544Z,39.00
2023-02-05T05:01:59.954Z,33.10
2023-02-05T05:04:28.253Z,25.30
2023-02-05T05:06:56.805Z,30.50
2023-02-05T05:09:25.598Z,27.20
2023-02-05T05:11:54.481Z,23.70
2023-02-05T05:14:23.166Z,20.70
2023-02-05T05:16:55.950Z,20.10
2023-02-05T05:19:24.491Z,20.50
2023-02-05T05:21:53.116Z,23.30
2023-02-05T05:24:21.703Z,28.00
2023-02-05T05:26:50.180Z,22.60
2023-02-05T05:29:18.661Z,25.80
2023-02-05T05:31:47.824Z,26.60
2023-02-05T05:34:16.648Z,26.40
2023-02-05T05:36:45.548Z,23.90
2023-02-05T05:39:33.171Z,28.10
2023-02-05T05:42:20.343Z,25.80
2023-02-05T05:44:52.437Z,29.90
2023-02-05T05:47:20.950Z,28.10
2023-02-05T05:49:49.728Z,29.80
2023-02-05T05:52:18.208Z,32.00
2023-02-05T05:54:47.199Z,35.00
2023-02-05T05:57:15.578Z,32.20
2023-02-05T05:59:44.057Z,34.10
2023-02-05T06:02:12.785Z,54.70
2023-02-05T06:04:41.781Z,38.50
2023-02-05T06:07:10.328Z,48.70
2023-02-05T06:09:38.917Z,31.60
2023-02-05T06:12:11.860Z,26.20
2023-02-05T06:14:41.628Z,30.60
2023-02-05T06:17:11.062Z,25.50
2023-02-05T06:19:39.601Z,28.90
2023-02-05T06:22:08.679Z,25.30
2023-02-05T06:24:37.222Z,28.20
2023-02-05T06:27:06.358Z,29.20
2023-02-05T06:29:36.587Z,25.80
2023-02-05T06:32:05.394Z,26.30
2023-02-05T06:34:34.374Z,29.40
2023-02-05T06:37:03.934Z,25.00
2023-02-05T06:39:32.968Z,30.20
2023-02-05T06:42:01.652Z,28.30
2023-02-05T06:44:30.579Z,26.20
2023-02-05T06:46:59.576Z,25.30
2023-02-05T06:49:28.228Z,26.50
2023-02-05T06:51:57.267Z,25.40
2023-02-05T06:54:25.813Z,28.20
2023-02-05T06:56:54.804Z,28.80
2023-02-05T06:59:23.581Z,30.10
2023-02-05T07:01:53.017Z,26.30
2023-02-05T07:04:21.405Z,28.50
2023-02-05T07:06:50.036Z,34.70
2023-02-05T07:09:18.747Z,26.60
2023-02-05T07:11:47.331Z,24.30
2023-02-05T07:14:18.286Z,21.20
2023-02-05T07:16:47.417Z,37.10
2023-02-05T07:19:16.080Z,23.00
2023-02-05T07:21:44.845Z,25.70
2023-02-05T07:24:14.748Z,24.70
2023-02-05T07:26:45.553Z,21.70
2023-02-05T07:29:14.170Z,23.50
2023-02-05T07:31:43.729Z,22.80
2023-02-05T07:34:12.259Z,19.70
2023-02-05T07:36:41.157Z,20.90
2023-02-05T07:39:09.835Z,21.30
2023-02-05T07:41:38.524Z,32.90
2023-02-05T07:44:07.209Z,22.10
2023-02-05T07:46:35.922Z,19.90
2023-02-05T07:49:04.277Z,19.30
2023-02-05T07:51:33.295Z,19.80
2023-02-05T07:54:06.716Z,20.10
2023-02-05T07:56:35.342Z,17.30
2023-02-05T07:59:04.319Z,22.60
2023-02-05T08:01:34.874Z,35.60
2023-02-05T08:04:03.389Z,51.20
2023-02-05T08:06:33.267Z,23.10
2023-02-05T08:09:01.953Z,15.20
2023-02-05T08:11:32.536Z,15.10
2023-02-05T08:14:05.704Z,13.90
2023-02-05T08:16:34.476Z,14.40
2023-02-05T08:19:03.040Z,37.70
2023-02-05T08:21:31.825Z,40.80
2023-02-05T08:24:01.332Z,70.20
2023-02-05T08:26:30.197Z,215.70
2023-02-05T08:28:59.973Z,102.50
2023-02-05T08:31:28.445Z,39.50
2023-02-05T08:33:57.970Z,25.40
2023-02-05T08:36:26.626Z,16.00
2023-02-05T08:38:55.203Z,19.80
2023-02-05T08:41:23.789Z,11.60
2023-02-05T08:43:52.389Z,17.10
2023-02-05T08:46:22.852Z,13.00
2023-02-05T08:48:51.367Z,10.30
2023-02-05T08:51:19.978Z,12.20
2023-02-05T08:53:48.635Z,18.00
2023-02-05T08:56:19.944Z,12.30
2023-02-05T08:58:48.669Z,8.90
2023-02-05T09:01:17.530Z,9.50
2023-02-05T09:03:46.048Z,12.60
2023-02-05T09:06:15.667Z,9.00
2023-02-05T09:08:44.149Z,10.80
2023-02-05T09:11:13.777Z,9.90
2023-02-05T09:13:42.660Z,10.90
2023-02-05T09:16:11.602Z,10.50
2023-02-05T09:18:40.007Z,11.20
2023-02-05T09:21:10.388Z,10.20
2023-02-05T09:23:39.428Z,13.90
2023-02-05T09:26:09.405Z,10.60
2023-02-05T09:28:38.332Z,11.50
2023-02-05T09:31:08.463Z,9.70
2023-02-05T09:33:37.243Z,10.30
2023-02-05T09:36:11.886Z,8.60
2023-02-05T09:38:41.838Z,8.60
2023-02-05T09:41:13.156Z,8.20
2023-02-05T09:44:00.779Z,9.00
2023-02-05T09:46:54.034Z,6.90
2023-02-05T09:49:38.050Z,7.30
2023-02-05T09:52:16.287Z,7.90
2023-02-05T09:54:45.694Z,9.00
2023-02-05T09:57:16.450Z,11.40
2023-02-05T09:59:46.249Z,8.60
2023-02-05T10:02:36.634Z,7.10
2023-02-05T10:05:12.475Z,7.70
2023-02-05T10:07:56.414Z,7.20
2023-02-05T10:10:46.135Z,6.70
2023-02-05T10:13:32.507Z,7.70
2023-02-05T10:16:11.074Z,7.40
2023-02-05T10:18:57.829Z,5.80
2023-02-05T10:21:42.386Z,7.40
2023-02-05T10:24:45.087Z,13.00
2023-02-05T10:27:22.780Z,8.80
2023-02-05T10:30:23.638Z,5.60
2023-02-05T10:32:58.036Z,6.40
2023-02-05T10:35:35.431Z,6.70
2023-02-05T10:38:05.608Z,5.20
2023-02-05T10:40:39.649Z,5.50
2023-02-05T10:43:37.729Z,8.90
2023-02-05T10:46:11.427Z,7.40
2023-02-05T10:48:40.014Z,6.20
2023-02-05T10:51:15.124Z,5.20
2023-02-05T10:53:44.214Z,5.80
2023-02-05T10:56:16.562Z,6.30
2023-02-05T10:58:52.274Z,6.30
2023-02-05T11:01:36.275Z,5.90
2023-02-05T11:04:07.732Z,8.60
2023-02-05T11:06:56.352Z,11.00
2023-02-05T11:09:24.942Z,7.80
2023-02-05T11:11:57.068Z,8.50
2023-02-05T11:14:37.157Z,7.90
2023-02-05T11:17:17.580Z,8.00
2023-02-05T11:19:56.805Z,7.60
2023-02-05T11:22:30.400Z,8.50
2023-02-05T11:25:17.309Z,8.70
2023-02-05T11:28:20.487Z,8.80
2023-02-05T11:30:52.146Z,8.10
2023-02-05T11:33:26.636Z,6.60
2023-02-05T11:36:09.415Z,7.90
2023-02-05T11:38:45.757Z,7.40
2023-02-05T11:41:25.631Z,7.10
2023-02-05T11:43:54.319Z,9.00
2023-02-05T11:46:24.040Z,7.90
2023-02-05T11:48:59.477Z,9.90
2023-02-05T11:51:37.496Z,17.30
2023-02-05T11:54:36.481Z,10.10
2023-02-05T11:57:17.480Z,9.30
2023-02-05T11:59:58.487Z,7.50
2023-02-05T12:02:29.582Z,8.60
2023-02-05T12:07:43.317Z,9.30
2023-02-05T12:10:17.232Z,9.20
2023-02-05T12:12:49.705Z,10.10
2023-02-05T12:15:33.275Z,7.90
2023-02-05T12:18:14.216Z,9.30
2023-02-05T12:21:05.450Z,10.00
2023-02-05T12:23:50.294Z,8.10
2023-02-05T12:26:26.775Z,8.60
2023-02-05T12:29:01.800Z,10.50
2023-02-05T12:31:50.123Z,9.40
2023-02-05T12:34:42.895Z,9.10
2023-02-05T12:37:12.908Z,8.60
2023-02-05T12:39:54.728Z,8.10
2023-02-05T12:42:31.820Z,10.80
2023-02-05T12:45:09.599Z,8.40
2023-02-05T12:47:51.889Z,8.40
2023-02-05T12:50:38.726Z,8.00
2023-02-05T12:53:22.355Z,6.10
2023-02-05T12:56:17.598Z,7.80
2023-02-05T12:58:54.592Z,7.70
2023-02-05T13:01:35.533Z,7.60
2023-02-05T13:04:04.215Z,7.50
2023-02-05T13:06:46.829Z,7.20
2023-02-05T13:09:15.594Z,7.00
2023-02-05T13:11:56.310Z,8.60
2023-02-05T13:14:30.816Z,8.10
2023-02-05T13:17:05.690Z,9.00
2023-02-05T13:19:48.364Z,9.30
2023-02-05T13:22:54.504Z,10.80
2023-02-05T13:25:38.837Z,9.90
2023-02-05T13:28:41.994Z,10.30
2023-02-05T13:31:31.467Z,12.40
2023-02-05T13:34:05.733Z,10.20
2023-02-05T13:37:17.235Z,10.20
2023-02-05T13:39:54.708Z,11.90
2023-02-05T13:42:46.341Z,10.70
2023-02-05T13:45:24.335Z,10.80
2023-02-05T13:48:03.053Z,11.90
2023-02-05T13:51:00.562Z,12.40
2023-02-05T13:53:52.361Z,12.50
2023-02-05T13:56:39.464Z,11.60
2023-02-05T13:59:37.443Z,12.20
2023-02-05T14:02:21.636Z,15.30
2023-02-05T14:04:54.577Z,12.90
2023-02-05T14:07:29.707Z,14.20
2023-02-05T14:10:00.822Z,13.00
2023-02-05T14:12:31.387Z,13.10
2023-02-05T14:15:16.947Z,13.70
2023-02-05T14:17:45.558Z,14.20
2023-02-05T14:20:26.495Z,15.30
2023-02-05T14:22:57.884Z,11.90
2023-02-05T14:25:36.590Z,15.00
2023-02-05T14:28:09.376Z,13.20
2023-02-05T14:30:48.850Z,14.80
2023-02-05T14:33:39.982Z,14.90
2023-02-05T14:36:18.053Z,15.80
2023-02-05T14:38:56.421Z,14.50
2023-02-05T14:41:41.005Z,13.90
2023-02-05T14:44:12.356Z,14.90
2023-02-05T14:46:43.293Z,15.20
2023-02-05T14:49:33.092Z,13.60
2023-02-05T14:52:03.822Z,15.70
2023-02-05T14:54:36.408Z,15.50
2023-02-05T14:57:29.301Z,15.60
2023-02-05T15:00:05.130Z,13.70
2023-02-05T15:03:04.924Z,15.90
2023-02-05T15:05:46.468Z,13.60
2023-02-05T15:08:18.697Z,12.90
2023-02-05T15:10:50.519Z,13.00
2023-02-05T15:13:21.438Z,13.50
2023-02-05T15:16:12.778Z,10.90
2023-02-05T15:18:45.397Z,10.90
2023-02-05T15:21:23.460Z,12.00
2023-02-05T15:24:03.177Z,11.80
2023-02-05T15:26:55.149Z,12.10
2023-02-05T15:29:40.723Z,13.40
2023-02-05T15:32:22.623Z,12.70
2023-02-05T15:35:03.404Z,11.30
2023-02-05T15:37:33.406Z,12.40
2023-02-05T15:40:31.290Z,13.70
2023-02-05T15:43:01.086Z,12.60
2023-02-05T15:45:34.658Z,15.60
2023-02-05T15:48:05.964Z,11.90
2023-02-05T15:50:35.759Z,13.10
2023-02-05T15:53:04.235Z,14.10
2023-02-05T15:55:33.195Z,15.30
2023-02-05T15:58:06.317Z,15.90
2023-02-05T16:00:34.997Z,13.50
2023-02-05T16:03:03.942Z,14.90
2023-02-05T16:05:32.876Z,13.20
2023-02-05T16:08:03.246Z,15.90
2023-02-05T16:10:33.855Z,13.50
2023-02-05T16:13:16.565Z,16.20
2023-02-05T16:16:00.249Z,16.20
2023-02-05T16:18:43.050Z,17.80
2023-02-05T16:21:35.492Z,15.80
2023-02-05T16:24:07.421Z,15.10
2023-02-05T16:26:42.174Z,17.10
2023-02-05T16:29:25.890Z,17.10
2023-02-05T16:32:04.007Z,15.00
2023-02-05T16:34:34.307Z,18.70
2023-02-05T16:37:05.363Z,19.50
2023-02-05T16:39:44.887Z,20.20
2023-02-05T16:42:25.877Z,21.70
2023-02-05T16:45:22.397Z,21.00
2023-02-05T16:48:19.063Z,21.90
2023-02-05T16:50:47.688Z,20.90
2023-02-05T16:53:26.694Z,23.10
2023-02-05T16:56:17.197Z,22.30
2023-02-05T16:58:48.700Z,21.70
2023-02-05T17:01:27.963Z,21.40
2023-02-05T17:03:56.791Z,21.90
2023-02-05T17:06:26.632Z,24.00
2023-02-05T17:08:55.704Z,19.40
2023-02-05T17:11:36.538Z,22.30
2023-02-05T17:14:28.578Z,23.60
2023-02-05T17:17:00.607Z,23.20
2023-02-05T17:19:33.729Z,23.70
2023-02-05T17:22:14.477Z,20.40
2023-02-05T17:24:44.219Z,22.20
2023-02-05T17:27:47.179Z,22.30
2023-02-05T17:30:16.682Z,19.80
2023-02-05T17:32:47.155Z,24.40
2023-02-05T17:35:19.729Z,22.50
2023-02-05T17:37:49.229Z,22.90
2023-02-05T17:40:19.502Z,23.20
2023-02-05T17:42:48.226Z,22.30
2023-02-05T17:45:24.959Z,22.20
2023-02-05T17:47:53.860Z,24.00
2023-02-05T17:50:22.853Z,24.50
2023-02-05T17:52:52.518Z,24.80
2023-02-05T17:55:21.999Z,24.20
2023-02-05T17:57:50.651Z,21.10
2023-02-05T18:00:24.307Z,18.80
2023-02-05T18:02:53.470Z,22.80
2023-02-05T18:05:22.686Z,19.90
2023-02-05T18:07:53.596Z,22.10
2023-02-05T18:10:29.340Z,21.00
2023-02-05T18:12:57.924Z,19.40
2023-02-05T18:15:27.127Z,21.60
2023-02-05T18:17:56.940Z,20.40
2023-02-05T18:20:27.233Z,19.40
2023-02-05T18:22:56.765Z,19.30
2023-02-05T18:25:25.452Z,17.30
2023-02-05T18:27:56.851Z,20.40
2023-02-05T18:30:25.496Z,20.80
2023-02-05T18:32:54.069Z,18.20
2023-02-05T18:35:22.717Z,18.90
2023-02-05T18:37:51.619Z,18.10
2023-02-05T18:40:20.741Z,17.50
2023-02-05T18:42:52.133Z,17.00
2023-02-05T18:45:21.286Z,18.30
2023-02-05T18:47:49.940Z,18.90
2023-02-05T18:50:19.103Z,18.70
2023-02-05T18:52:48.471Z,16.00
2023-02-05T18:55:17.375Z,16.30
2023-02-05T18:57:46.348Z,16.90
2023-02-05T19:00:15.488Z,18.50
2023-02-05T19:02:44.654Z,17.90
2023-02-05T19:05:13.538Z,18.70
2023-02-05T19:07:43.454Z,17.10
2023-02-05T19:10:12.272Z,14.50
2023-02-05T19:12:41.436Z,17.20
2023-02-05T19:15:10.272Z,16.30
2023-02-05T19:17:38.808Z,16.10
2023-02-05T19:20:07.800Z,15.00
2023-02-05T19:22:36.487Z,15.50
2023-02-05T19:25:05.482Z,14.50
2023-02-05T19:27:34.164Z,16.80
2023-02-05T19:30:02.717Z,18.20
2023-02-05T19:32:32.660Z,19.50
2023-02-05T19:35:03.909Z,19.80
2023-02-05T19:37:32.395Z,16.10
2023-02-05T19:40:01.221Z,19.60
2023-02-05T19:42:30.687Z,19.40
2023-02-05T19:44:59.508Z,19.40
2023-02-05T19:47:28.626Z,18.80
2023-02-05T19:49:57.359Z,20.10
2023-02-05T19:52:26.558Z,17.70
2023-02-05T19:54:55.349Z,17.70
2023-02-05T19:57:25.441Z,20.40
2023-02-05T19:59:54.109Z,20.30
2023-02-05T20:02:24.177Z,19.00
2023-02-05T20:04:53.129Z,18.50
2023-02-05T20:07:22.244Z,18.30
2023-02-05T20:09:50.820Z,22.50
2023-02-05T20:12:20.091Z,23.20
2023-02-05T20:14:48.749Z,24.70
2023-02-05T20:17:18.158Z,24.40
2023-02-05T20:19:46.920Z,27.70
2023-02-05T20:22:15.504Z,22.90
2023-02-05T20:24:43.981Z,23.90
2023-02-05T20:27:13.600Z,21.10
2023-02-05T20:30:02.246Z,24.80
2023-02-05T20:32:31.556Z,25.20
2023-02-05T20:35:00.154Z,22.40
2023-02-05T20:37:34.598Z,23.20
2023-02-05T20:40:04.105Z,20.40
2023-02-05T20:42:33.155Z,28.30
2023-02-05T20:45:02.047Z,20.90
2023-02-05T20:47:31.238Z,23.40
2023-02-05T20:50:00.138Z,24.90
2023-02-05T20:52:29.261Z,25.20
2023-02-05T20:54:58.638Z,22.10
2023-02-05T20:57:27.226Z,23.90
2023-02-05T20:59:56.618Z,21.30
2023-02-05T21:02:26.686Z,24.10
2023-02-05T21:04:55.109Z,22.80
2023-02-05T21:07:29.667Z,19.80
2023-02-05T21:10:01.982Z,23.10
2023-02-05T21:12:33.048Z,21.50
2023-02-05T21:15:02.717Z,23.50
2023-02-05T21:17:32.186Z,23.00
2023-02-05T21:20:01.357Z,23.20
2023-02-05T21:22:30.783Z,24.50
2023-02-05T21:24:59.498Z,20.20
2023-02-05T21:27:28.440Z,21.30
2023-02-05T21:29:57.440Z,23.60
2023-02-05T21:32:26.119Z,22.50
2023-02-05T21:34:54.828Z,20.40
2023-02-05T21:37:23.724Z,21.90
2023-02-05T21:39:52.919Z,21.70
2023-02-05T21:42:24.369Z,24.10
2023-02-05T21:44:54.567Z,21.50
2023-02-05T21:47:23.177Z,20.30
2023-02-05T21:49:51.734Z,19.50
2023-02-05T21:52:20.467Z,23.70
2023-02-05T21:54:50.808Z,20.80
2023-02-05T21:57:21.989Z,19.60
2023-02-05T21:59:50.371Z,21.10
2023-02-05T22:02:19.110Z,18.80
2023-02-05T22:04:47.870Z,20.20
2023-02-05T22:07:16.676Z,20.10
2023-02-05T22:09:45.222Z,19.20
2023-02-05T22:12:13.792Z,18.90
2023-02-05T22:14:42.246Z,23.00
2023-02-05T22:17:10.652Z,22.20
2023-02-05T22:19:39.955Z,20.50
2023-02-05T22:22:08.434Z,18.70
2023-02-05T22:24:36.879Z,24.30
2023-02-05T22:27:06.040Z,20.00
2023-02-05T22:29:35.005Z,19.80
2023-02-05T22:32:04.038Z,22.20
2023-02-05T22:34:32.403Z,24.80
2023-02-05T22:37:00.839Z,22.90
2023-02-05T22:39:29.505Z,24.10
2023-02-05T22:41:58.230Z,19.30
2023-02-05T22:44:26.929Z,21.50
2023-02-05T22:46:55.505Z,23.50
2023-02-05T22:49:23.983Z,24.50
2023-02-05T22:51:53.294Z,21.80
2023-02-05T22:54:21.576Z,20.20
2023-02-05T22:56:50.201Z,20.90
2023-02-05T22:59:18.635Z,23.30
2023-02-05T23:01:47.100Z,22.90
2023-02-05T23:04:15.637Z,23.30
2023-02-05T23:06:45.463Z,22.90
2023-02-05T23:09:16.359Z,25.80
2023-02-05T23:11:49.226Z,23.30
2023-02-05T23:14:17.726Z,22.70
2023-02-05T23:16:47.574Z,22.90
2023-02-05T23:19:20.158Z,21.90
2023-02-05T23:21:48.894Z,27.60
2023-02-05T23:24:18.489Z,24.70
2023-02-05T23:26:48.292Z,23.90
2023-02-05T23:29:17.322Z,25.60
2023-02-05T23:31:46.087Z,25.40
2023-02-05T23:34:14.607Z,29.00
2023-02-05T23:36:43.702Z,24.00
2023-02-05T23:39:12.319Z,26.20
2023-02-05T23:41:41.499Z,20.30
2023-02-05T23:44:13.603Z,26.40
2023-02-05T23:49:11.745Z,27.20
2023-02-05T23:51:40.690Z,24.70
2023-02-05T23:54:10.306Z,27.00
2023-02-05T23:56:39.927Z,29.00
2023-02-05T23:59:08.898Z,31.90
